Time;durP1;ratioP1;P1;durP2;ratioP2;P2;SDS_P1;SDS_P2;PMS_P1;PMS_P2;Temp;Humidity;BMP_temperature;BMP_pressure;BME280_temperature;BME280_humidity;BME280_pressure;Samples;Min_cycle;Max_cycle;Signal;HPM_P1;HPM_P2
2024/01/19 00:00:15;;;;;;;8.40;4.77;;;;;;;;;;5076310;28;20420;-69
2024/01/19 00:02:42;;;;;;;10.23;4.83;;;;;;;;;;5076114;28;20934;-69
2024/01/19 00:05:09;;;;;;;10.07;4.63;;;;;;;;;;5075966;28;20779;-69
2024/01/19 00:07:36;;;;;;;7.77;2.97;;;;;;;;;;5091631;28;20416;-70
2024/01/19 00:10:03;;;;;;;10.33;4.10;;;;;;;;;;5041736;28;20478;-69
2024/01/19 00:12:35;;;;;;;8.77;3.23;;;;;;;;;;5075708;28;20448;-69
2024/01/19 00:15:06;;;;;;;12.03;4.40;;;;;;;;;;5076379;28;20420;-69
2024/01/19 00:17:32;;;;;;;5.10;2.70;;;;;;;;;;5042056;28;20500;-69
2024/01/19 00:19:59;;;;;;;11.03;4.87;;;;;;;;;;5075918;28;20464;-69
2024/01/19 00:22:26;;;;;;;12.67;4.77;;;;;;;;;;5075977;28;20466;-69
2024/01/19 00:24:53;;;;;;;11.93;4.93;;;;;;;;;;5041959;28;20440;-69
2024/01/19 00:27:19;;;;;;;11.47;4.90;;;;;;;;;;5076115;28;20518;-69
2024/01/19 00:29:46;;;;;;;12.63;4.77;;;;;;;;;;5057804;28;20535;-69
2024/01/19 00:32:30;;;;;;;12.37;5.20;;;;;;;;;;5060403;28;20416;-69
2024/01/19 00:34:56;;;;;;;8.63;3.20;;;;;;;;;;5076247;28;20424;-69
2024/01/19 00:37:23;;;;;;;7.80;3.97;;;;;;;;;;5075740;28;20883;-69
2024/01/19 00:39:50;;;;;;;7.80;4.07;;;;;;;;;;5057950;28;20497;-69
2024/01/19 00:42:20;;;;;;;9.87;3.23;;;;;;;;;;5041385;28;20440;-69
2024/01/19 00:44:46;;;;;;;8.13;3.27;;;;;;;;;;5075523;28;20420;-69
2024/01/19 00:47:13;;;;;;;5.40;2.93;;;;;;;;;;5057477;28;20500;-69
2024/01/19 00:49:40;;;;;;;4.43;2.37;;;;;;;;;;5090742;28;20474;-69
2024/01/19 00:52:06;;;;;;;7.20;3.00;;;;;;;;;;5075101;28;20923;-69
2024/01/19 00:54:33;;;;;;;10.33;3.90;;;;;;;;;;5057350;28;20471;-69
2024/01/19 00:57:00;;;;;;;13.07;4.47;;;;;;;;;;5057358;28;20444;-69
2024/01/19 00:59:27;;;;;;;9.70;3.97;;;;;;;;;;5075203;28;20492;-69
2024/01/19 01:01:53;;;;;;;6.93;3.00;;;;;;;;;;5057639;28;20432;-69
2024/01/19 01:04:20;;;;;;;8.27;3.97;;;;;;;;;;5074935;28;20427;-69
2024/01/19 01:06:47;;;;;;;4.97;2.30;;;;;;;;;;5074661;28;20935;-69
2024/01/19 01:09:14;;;;;;;5.30;2.63;;;;;;;;;;5056788;28;20539;-69
2024/01/19 01:11:41;;;;;;;5.33;2.20;;;;;;;;;;5024447;28;20453;-69
2024/01/19 01:49:48;;;;;;;7.20;3.27;;;;;;;;;;5089647;28;20922;-69
2024/01/19 01:52:15;;;;;;;4.60;2.37;;;;;;;;;;5056613;28;20532;-69
2024/01/19 01:54:42;;;;;;;10.03;4.20;;;;;;;;;;5090068;28;20444;-69
2024/01/19 01:57:09;;;;;;;7.67;2.83;;;;;;;;;;5055475;28;20416;-69
2024/01/19 01:59:36;;;;;;;9.93;4.17;;;;;;;;;;5039728;28;20526;-69
2024/01/19 02:02:03;;;;;;;8.87;1.93;;;;;;;;;;5056622;28;20425;-69
2024/01/19 02:04:29;;;;;;;7.13;3.10;;;;;;;;;;5040128;28;20443;-69
2024/01/19 02:06:56;;;;;;;9.17;2.87;;;;;;;;;;5074038;28;20452;-69
2024/01/19 02:09:23;;;;;;;5.77;2.80;;;;;;;;;;5055995;28;20911;-70
2024/01/19 02:11:49;;;;;;;10.67;3.20;;;;;;;;;;5056234;28;20408;-70
2024/01/19 02:14:16;;;;;;;6.13;2.27;;;;;;;;;;5074327;28;20456;-69
2024/01/19 02:16:43;;;;;;;7.07;2.10;;;;;;;;;;5073690;28;20439;-69
2024/01/19 02:19:10;;;;;;;9.60;2.50;;;;;;;;;;5073938;28;20432;-69
2024/01/19 02:21:36;;;;;;;3.67;1.37;;;;;;;;;;5056210;28;20903;-69
2024/01/19 02:24:03;;;;;;;7.00;2.73;;;;;;;;;;5073594;28;20428;-69
2024/01/19 02:26:30;;;;;;;5.43;2.50;;;;;;;;;;5055636;28;20459;-69
2024/01/19 02:28:57;;;;;;;5.90;1.97;;;;;;;;;;5055793;28;20563;-69
2024/01/19 02:35:23;;;;;;;7.97;2.23;;;;;;;;;;5073548;28;20415;-69
2024/01/19 02:41:49;;;;;;;5.33;2.53;;;;;;;;;;5073478;28;20399;-69
2024/01/19 02:44:16;;;;;;;5.20;2.47;;;;;;;;;;5055785;28;20468;-69
2024/01/19 02:46:43;;;;;;;6.93;2.37;;;;;;;;;;5074250;28;20551;-69
2024/01/19 02:49:09;;;;;;;7.77;2.37;;;;;;;;;;5073214;28;20424;-69
2024/01/19 02:51:36;;;;;;;5.93;2.77;;;;;;;;;;5056000;28;20428;-69
2024/01/19 02:54:02;;;;;;;5.83;1.90;;;;;;;;;;5074082;28;20432;-69
2024/01/19 02:56:29;;;;;;;4.53;2.03;;;;;;;;;;5073279;28;20439;-69
2024/01/19 02:58:56;;;;;;;4.70;2.40;;;;;;;;;;5055947;28;20436;-69
2024/01/19 03:01:22;;;;;;;8.27;2.03;;;;;;;;;;5038998;28;20413;-70
2024/01/19 03:03:49;;;;;;;10.17;2.73;;;;;;;;;;5055916;28;20929;-70
2024/01/19 03:06:15;;;;;;;4.57;1.73;;;;;;;;;;5073647;28;20451;-70
2024/01/19 03:08:42;;;;;;;6.67;2.80;;;;;;;;;;5073388;28;20467;-70
2024/01/19 03:11:09;;;;;;;4.03;1.67;;;;;;;;;;5055308;28;20435;-70
2024/01/19 03:13:36;;;;;;;7.40;3.63;;;;;;;;;;5055171;28;20468;-70
2024/01/19 03:16:04;;;;;;;7.03;2.73;;;;;;;;;;5039268;28;20563;-70
2024/01/19 03:18:31;;;;;;;5.07;2.77;;;;;;;;;;5073552;28;20416;-70
2024/01/19 03:20:58;;;;;;;3.27;1.87;;;;;;;;;;5055386;28;20510;-70
2024/01/19 03:23:27;;;;;;;9.87;2.03;;;;;;;;;;5073301;28;20424;-70
2024/01/19 03:25:54;;;;;;;10.30;3.07;;;;;;;;;;5040555;28;20522;-71
2024/01/19 03:28:21;;;;;;;9.63;4.00;;;;;;;;;;5042363;28;20440;-70
2024/01/19 03:30:48;;;;;;;8.87;3.73;;;;;;;;;;5077052;28;20520;-74
2024/01/19 03:33:14;;;;;;;6.60;3.07;;;;;;;;;;5042981;28;20882;-77
2024/01/19 03:35:41;;;;;;;5.37;2.33;;;;;;;;;;5052473;28;20427;-70
2024/01/19 03:38:08;;;;;;;4.70;2.37;;;;;;;;;;5087254;28;20494;-81
2024/01/19 03:40:35;;;;;;;4.20;1.83;;;;;;;;;;5068660;28;20423;-78
2024/01/19 03:43:02;;;;;;;7.23;1.57;;;;;;;;;;5052267;28;20951;-79
2024/01/19 03:45:29;;;;;;;4.20;2.37;;;;;;;;;;5052560;28;20433;-79
2024/01/19 03:47:58;;;;;;;4.70;1.73;;;;;;;;;;5052557;28;20856;-79
2024/01/19 03:50:25;;;;;;;5.10;2.07;;;;;;;;;;5036146;28;20502;-75
2024/01/19 03:52:52;;;;;;;4.23;2.67;;;;;;;;;;5069280;28;20439;-77
2024/01/19 03:55:19;;;;;;;4.53;1.97;;;;;;;;;;5087609;28;20411;-76
2024/01/19 03:57:45;;;;;;;8.63;2.53;;;;;;;;;;5036261;28;20436;-78
2024/01/19 04:00:12;;;;;;;6.07;2.60;;;;;;;;;;5052769;28;20763;-76
2024/01/19 04:02:39;;;;;;;5.50;2.50;;;;;;;;;;5052494;28;20435;-77
2024/01/19 04:05:06;;;;;;;4.53;2.30;;;;;;;;;;5035813;28;20428;-74
2024/01/19 04:07:32;;;;;;;8.17;2.50;;;;;;;;;;5086888;28;20463;-74
2024/01/19 04:09:59;;;;;;;5.60;2.93;;;;;;;;;;5068730;28;20412;-77
2024/01/19 04:12:26;;;;;;;3.07;1.63;;;;;;;;;;5068659;28;20456;-78
2024/01/19 04:14:52;;;;;;;5.10;1.83;;;;;;;;;;5068851;28;20415;-78
2024/01/19 04:17:19;;;;;;;11.80;2.37;;;;;;;;;;5068811;28;20473;-76
2024/01/19 04:19:46;;;;;;;6.33;2.77;;;;;;;;;;5052589;28;20447;-75
2024/01/19 04:22:13;;;;;;;7.97;2.27;;;;;;;;;;5052093;28;20430;-76
2024/01/19 04:24:40;;;;;;;5.07;1.90;;;;;;;;;;5052059;28;20488;-76
2024/01/19 04:27:06;;;;;;;9.30;2.17;;;;;;;;;;5035297;28;20471;-77
2024/01/19 04:29:33;;;;;;;10.07;3.17;;;;;;;;;;5068558;28;20419;-77
2024/01/19 04:32:00;;;;;;;7.90;3.10;;;;;;;;;;5056728;28;20824;-74
2024/01/19 04:34:26;;;;;;;6.77;2.77;;;;;;;;;;5051885;28;20423;-78
2024/01/19 04:36:53;;;;;;;11.40;2.00;;;;;;;;;;5067715;28;20443;-82
2024/01/19 04:39:20;;;;;;;6.27;3.00;;;;;;;;;;5068113;28;20419;-78
2024/01/19 04:41:46;;;;;;;7.80;3.10;;;;;;;;;;5068211;28;20428;-77
2024/01/19 04:44:14;;;;;;;9.70;2.30;;;;;;;;;;5051602;28;20473;-81
2024/01/19 04:46:40;;;;;;;5.27;1.53;;;;;;;;;;5051410;28;20451;-77
2024/01/19 04:49:07;;;;;;;3.00;1.07;;;;;;;;;;5068310;28;20914;-76
2024/01/19 04:51:34;;;;;;;6.03;2.30;;;;;;;;;;5051714;28;20477;-74
2024/01/19 04:54:01;;;;;;;8.70;2.77;;;;;;;;;;5068334;28;20438;-78
2024/01/19 04:56:28;;;;;;;4.80;1.70;;;;;;;;;;5034239;28;20435;-74
2024/01/19 04:58:54;;;;;;;5.87;2.10;;;;;;;;;;5051280;28;20492;-76
2024/01/19 05:01:21;;;;;;;11.17;3.50;;;;;;;;;;5067744;28;20419;-76
2024/01/19 05:03:48;;;;;;;6.70;2.73;;;;;;;;;;5051536;28;20423;-77
2024/01/19 05:06:15;;;;;;;7.60;3.33;;;;;;;;;;5067471;28;22078;-77
2024/01/19 05:08:41;;;;;;;9.97;4.07;;;;;;;;;;5050864;28;20527;-78
2024/01/19 05:11:13;;;;;;;6.53;2.53;;;;;;;;;;5051258;28;20522;-78
2024/01/19 05:13:41;;;;;;;4.13;2.17;;;;;;;;;;5068490;28;20483;-77
2024/01/19 05:16:08;;;;;;;7.50;3.07;;;;;;;;;;5067986;28;20427;-80
2024/01/19 05:18:35;;;;;;;10.87;3.00;;;;;;;;;;5050622;28;20518;-78
2024/01/19 05:21:02;;;;;;;9.63;2.97;;;;;;;;;;5067029;28;21925;-77
2024/01/19 05:23:29;;;;;;;11.23;3.70;;;;;;;;;;5050161;28;20447;-76
2024/01/19 05:25:56;;;;;;;5.33;2.00;;;;;;;;;;5050411;28;20416;-77
2024/01/19 05:28:24;;;;;;;4.90;1.60;;;;;;;;;;5033478;28;20547;-78
2024/01/19 05:30:51;;;;;;;8.50;2.60;;;;;;;;;;5050063;28;20779;-75
2024/01/19 05:33:19;;;;;;;6.70;2.77;;;;;;;;;;5054117;28;20946;-76
2024/01/19 05:35:49;;;;;;;8.00;3.67;;;;;;;;;;5050617;28;20423;-80
2024/01/19 05:38:19;;;;;;;8.47;2.97;;;;;;;;;;5067011;28;20459;-70
2024/01/19 05:40:49;;;;;;;4.77;1.50;;;;;;;;;;5050015;28;20424;-71
2024/01/19 05:43:18;;;;;;;9.23;2.73;;;;;;;;;;5066527;28;20416;-70
2024/01/19 05:49:41;;;;;;;6.87;3.03;;;;;;;;;;5063779;28;20942;-72
2024/01/19 05:56:10;;;;;;;9.00;3.43;;;;;;;;;;5064322;28;20410;-71
2024/01/19 05:58:37;;;;;;;8.53;3.47;;;;;;;;;;5064213;28;20435;-71
2024/01/19 06:01:06;;;;;;;9.80;3.90;;;;;;;;;;5030311;28;20421;-71
2024/01/19 06:03:35;;;;;;;8.27;3.37;;;;;;;;;;5046471;28;22480;-71
2024/01/19 06:06:05;;;;;;;10.10;4.67;;;;;;;;;;5029964;28;20436;-71
2024/01/19 06:08:50;;;;;;;9.80;3.43;;;;;;;;;;5045721;28;20476;-78
2024/01/19 06:11:18;;;;;;;6.70;2.23;;;;;;;;;;5029784;28;20428;-78
2024/01/19 06:13:47;;;;;;;8.90;3.13;;;;;;;;;;5029729;28;20502;-81
2024/01/19 06:16:14;;;;;;;8.53;4.00;;;;;;;;;;5050713;28;20452;-70
2024/01/19 06:18:42;;;;;;;10.97;3.87;;;;;;;;;;5062361;28;20438;-75
2024/01/19 06:21:10;;;;;;;11.33;4.50;;;;;;;;;;5045862;28;20466;-82
2024/01/19 06:23:38;;;;;;;9.73;3.60;;;;;;;;;;5046302;28;20895;-78
2024/01/19 06:26:11;;;;;;;9.17;4.23;;;;;;;;;;5045896;28;20417;-69
2024/01/19 06:28:38;;;;;;;10.60;2.60;;;;;;;;;;5062042;28;20493;-78
2024/01/19 06:31:07;;;;;;;5.30;1.57;;;;;;;;;;5045784;28;20412;-77
2024/01/19 06:33:38;;;;;;;9.17;2.77;;;;;;;;;;5018167;28;20796;-77
2024/01/19 06:36:27;;;;;;;4.77;2.40;;;;;;;;;;5048494;28;20931;-78
2024/01/19 06:38:56;;;;;;;6.93;2.97;;;;;;;;;;5045464;28;20996;-78
2024/01/19 06:41:42;;;;;;;9.10;2.30;;;;;;;;;;5031886;28;20436;-82
2024/01/19 06:44:10;;;;;;;7.23;2.77;;;;;;;;;;5045031;28;20436;-79
2024/01/19 06:46:38;;;;;;;10.40;2.97;;;;;;;;;;5053312;28;20428;-69
2024/01/19 06:49:05;;;;;;;8.40;2.97;;;;;;;;;;5055383;28;20436;-68
2024/01/19 06:51:36;;;;;;;3.53;1.40;;;;;;;;;;5072618;28;20447;-69
2024/01/19 06:54:03;;;;;;;11.10;3.73;;;;;;;;;;5039024;28;20531;-69
2024/01/19 06:56:30;;;;;;;9.00;2.53;;;;;;;;;;5073093;28;20424;-69
2024/01/19 06:58:58;;;;;;;7.63;2.70;;;;;;;;;;5055559;28;20432;-69
2024/01/19 07:01:25;;;;;;;5.80;3.10;;;;;;;;;;5058579;28;20436;-69
2024/01/19 07:03:52;;;;;;;10.60;2.33;;;;;;;;;;5055001;28;20455;-69
2024/01/19 07:06:19;;;;;;;6.13;3.53;;;;;;;;;;5060108;28;20447;-69
2024/01/19 07:08:48;;;;;;;8.53;3.43;;;;;;;;;;5059731;28;20475;-69
2024/01/19 07:11:15;;;;;;;7.10;2.40;;;;;;;;;;5059946;28;20428;-69
2024/01/19 07:13:42;;;;;;;7.33;2.47;;;;;;;;;;5059463;28;20935;-69
2024/01/19 07:16:10;;;;;;;7.37;2.90;;;;;;;;;;5059426;28;20475;-69
2024/01/19 07:18:38;;;;;;;5.63;2.67;;;;;;;;;;5075866;28;20439;-69
2024/01/19 07:21:08;;;;;;;6.67;2.50;;;;;;;;;;5043155;28;20433;-69
2024/01/19 07:23:53;;;;;;;6.93;2.17;;;;;;;;;;5048077;28;20380;-69
2024/01/19 07:26:20;;;;;;;7.40;3.27;;;;;;;;;;5058410;28;20432;-74
2024/01/19 07:28:49;;;;;;;5.07;2.00;;;;;;;;;;5076994;28;20473;-70
2024/01/19 07:31:16;;;;;;;3.40;1.77;;;;;;;;;;5059589;28;20420;-70
2024/01/19 07:33:43;;;;;;;3.17;1.33;;;;;;;;;;5059033;28;20510;-70
2024/01/19 07:36:28;;;;;;;10.00;4.10;;;;;;;;;;5047826;28;20422;-70
2024/01/19 07:38:57;;;;;;;9.50;3.30;;;;;;;;;;5059597;28;20416;-80
2024/01/19 07:41:25;;;;;;;14.00;3.93;;;;;;;;;;5043224;28;20431;-80
2024/01/19 07:43:54;;;;;;;8.70;2.83;;;;;;;;;;5077869;28;20416;-82
2024/01/19 07:46:24;;;;;;;9.53;4.27;;;;;;;;;;5059582;28;20401;-79
2024/01/19 07:48:52;;;;;;;8.70;3.17;;;;;;;;;;5059215;28;20448;-75
2024/01/19 07:51:22;;;;;;;7.83;3.00;;;;;;;;;;5059033;28;20443;-73
2024/01/19 07:53:49;;;;;;;14.23;4.13;;;;;;;;;;5042498;28;20950;-73
2024/01/19 07:56:17;;;;;;;5.37;2.73;;;;;;;;;;5058878;28;20450;-74
2024/01/19 07:58:46;;;;;;;6.67;3.27;;;;;;;;;;5032029;28;20439;-74
2024/01/19 08:05:07;;;;;;;5.63;2.57;;;;;;;;;;5086920;28;20759;-69
2024/01/19 08:11:36;;;;;;;7.87;3.80;;;;;;;;;;5086284;28;20473;-68
2024/01/19 08:14:05;;;;;;;7.50;3.00;;;;;;;;;;5052055;28;20508;-69
2024/01/19 08:16:32;;;;;;;8.40;3.67;;;;;;;;;;5049652;28;20455;-69
2024/01/19 08:19:02;;;;;;;5.17;2.80;;;;;;;;;;5032469;28;20432;-76
2024/01/19 08:21:31;;;;;;;6.67;3.50;;;;;;;;;;5033392;28;20433;-72
2024/01/19 08:23:58;;;;;;;3.73;1.93;;;;;;;;;;5048765;28;20432;-70
2024/01/19 08:26:25;;;;;;;5.50;2.87;;;;;;;;;;5048459;28;20444;-71
2024/01/19 08:28:52;;;;;;;4.60;2.17;;;;;;;;;;5049023;28;20468;-74
2024/01/19 08:31:19;;;;;;;6.17;3.03;;;;;;;;;;5050598;28;20986;-74
2024/01/19 08:33:46;;;;;;;8.87;3.30;;;;;;;;;;5032416;28;20539;-73
2024/01/19 08:36:13;;;;;;;6.53;2.87;;;;;;;;;;5065948;28;20460;-73
2024/01/19 08:38:40;;;;;;;7.87;3.40;;;;;;;;;;5067440;28;20822;-73
2024/01/19 08:41:06;;;;;;;7.07;2.53;;;;;;;;;;5048939;28;20433;-76
2024/01/19 08:43:33;;;;;;;10.40;4.03;;;;;;;;;;5058137;28;20439;-74
2024/01/19 08:49:59;;;;;;;6.83;3.93;;;;;;;;;;5076271;28;20471;-71
2024/01/19 08:52:30;;;;;;;8.27;3.23;;;;;;;;;;5048436;28;20439;-75
2024/01/19 08:54:58;;;;;;;7.60;3.90;;;;;;;;;;5032227;28;20436;-73
2024/01/19 08:57:26;;;;;;;5.27;2.40;;;;;;;;;;5016755;28;20447;-78
2024/01/19 08:59:53;;;;;;;8.10;2.73;;;;;;;;;;5036935;28;20543;-74
2024/01/19 09:02:19;;;;;;;7.10;2.10;;;;;;;;;;5015162;28;20424;-75
2024/01/19 09:04:49;;;;;;;8.47;3.17;;;;;;;;;;5048441;28;20443;-75
2024/01/19 09:07:18;;;;;;;6.93;3.03;;;;;;;;;;5031269;28;20776;-74
2024/01/19 09:09:47;;;;;;;3.73;2.63;;;;;;;;;;5015716;28;20436;-75
2024/01/19 09:12:14;;;;;;;8.53;3.00;;;;;;;;;;5047447;28;20493;-74
2024/01/19 09:14:40;;;;;;;10.87;3.77;;;;;;;;;;5031457;28;20478;-72
2024/01/19 09:17:07;;;;;;;5.17;2.83;;;;;;;;;;5030641;28;20480;-73
2024/01/19 09:19:35;;;;;;;3.87;1.67;;;;;;;;;;5031534;28;20438;-75
2024/01/19 09:22:05;;;;;;;5.50;3.43;;;;;;;;;;5032502;28;20437;-75
2024/01/19 09:24:32;;;;;;;5.10;3.40;;;;;;;;;;5047718;28;20741;-67
2024/01/19 09:26:59;;;;;;;9.00;3.37;;;;;;;;;;5031427;28;20452;-77
2024/01/19 09:29:26;;;;;;;4.13;2.00;;;;;;;;;;5015104;28;20659;-78
2024/01/19 09:31:56;;;;;;;5.13;1.87;;;;;;;;;;5047884;28;20432;-74
2024/01/19 09:34:23;;;;;;;7.20;2.80;;;;;;;;;;5065474;28;20436;-69
2024/01/19 09:36:50;;;;;;;6.50;2.27;;;;;;;;;;5065204;28;20440;-69
2024/01/19 09:39:19;;;;;;;7.17;3.10;;;;;;;;;;5047246;28;20432;-68
2024/01/19 09:41:46;;;;;;;5.93;2.57;;;;;;;;;;5030596;28;20460;-70
2024/01/19 09:44:13;;;;;;;2.03;1.50;;;;;;;;;;5046433;28;20940;-70
2024/01/19 09:47:11;;;;;;;2.43;1.70;;;;;;;;;;5020481;28;20423;-77
2024/01/19 09:49:49;;;;;;;6.87;2.70;;;;;;;;;;5048726;28;20984;-77
2024/01/19 09:52:19;;;;;;;4.70;2.37;;;;;;;;;;5031288;28;20428;-79
2024/01/19 09:54:49;;;;;;;5.37;3.47;;;;;;;;;;5048047;28;20489;-77
2024/01/19 09:57:16;;;;;;;4.83;3.00;;;;;;;;;;5031375;28;20464;-78
2024/01/19 09:59:44;;;;;;;5.67;3.13;;;;;;;;;;5020593;28;20471;-78
2024/01/19 10:02:12;;;;;;;8.77;3.57;;;;;;;;;;5021299;28;20470;-81
2024/01/19 10:04:42;;;;;;;4.80;2.60;;;;;;;;;;5033585;28;20911;-71
2024/01/19 10:07:09;;;;;;;7.40;4.00;;;;;;;;;;5065101;28;20436;-81
2024/01/19 10:09:36;;;;;;;7.20;3.03;;;;;;;;;;5047039;28;20463;-73
2024/01/19 10:12:20;;;;;;;4.90;2.57;;;;;;;;;;5035774;28;20460;-79
2024/01/19 10:14:47;;;;;;;5.97;3.33;;;;;;;;;;5030975;28;20432;-80
2024/01/19 10:17:14;;;;;;;3.37;2.40;;;;;;;;;;5048094;28;20432;-79
2024/01/19 10:19:41;;;;;;;7.63;2.63;;;;;;;;;;5047532;28;20454;-78
2024/01/19 10:22:27;;;;;;;7.33;3.80;;;;;;;;;;5031309;28;20424;-70
2024/01/19 10:24:57;;;;;;;8.47;3.67;;;;;;;;;;5013702;28;20460;-74
2024/01/19 10:27:36;;;;;;;6.40;3.37;;;;;;;;;;5030050;28;20915;-73
2024/01/19 10:30:14;;;;;;;5.87;2.73;;;;;;;;;;5030740;28;20428;-70
2024/01/19 10:32:43;;;;;;;6.60;3.97;;;;;;;;;;5048722;28;20463;-80
2024/01/19 10:35:11;;;;;;;5.93;3.23;;;;;;;;;;5030488;28;20440;-80
2024/01/19 10:37:38;;;;;;;11.53;6.17;;;;;;;;;;5065016;28;20518;-76
2024/01/19 10:40:17;;;;;;;8.47;4.20;;;;;;;;;;5030503;28;20433;-75
2024/01/19 10:42:45;;;;;;;10.60;4.90;;;;;;;;;;5064448;28;20428;-74
2024/01/19 10:45:20;;;;;;;9.83;4.60;;;;;;;;;;5047228;28;20420;-74
2024/01/19 10:47:49;;;;;;;6.67;3.10;;;;;;;;;;5030967;28;20434;-74
2024/01/19 10:50:16;;;;;;;8.43;3.93;;;;;;;;;;5030047;28;20794;-69
2024/01/19 10:52:44;;;;;;;6.53;3.20;;;;;;;;;;5046995;28;20749;-76
2024/01/19 10:55:31;;;;;;;3.47;1.83;;;;;;;;;;5047688;28;20446;-78
2024/01/19 10:58:04;;;;;;;5.63;2.57;;;;;;;;;;5047209;28;20501;-74
2024/01/19 11:00:35;;;;;;;4.60;2.93;;;;;;;;;;5053200;28;20463;-75
2024/01/19 11:03:03;;;;;;;5.93;2.40;;;;;;;;;;5046991;28;20423;-73
2024/01/19 11:05:32;;;;;;;3.07;1.93;;;;;;;;;;5047455;28;20892;-70
2024/01/19 11:08:02;;;;;;;6.23;3.13;;;;;;;;;;5031358;28;21058;-69
2024/01/19 11:10:30;;;;;;;6.53;3.23;;;;;;;;;;5030331;28;20427;-77
2024/01/19 11:12:58;;;;;;;5.87;2.53;;;;;;;;;;5031775;28;20453;-77
2024/01/19 11:15:28;;;;;;;3.80;1.83;;;;;;;;;;5048185;28;21624;-81
2024/01/19 11:17:58;;;;;;;2.03;1.47;;;;;;;;;;5048332;28;20421;-78
2024/01/19 11:20:28;;;;;;;4.00;2.63;;;;;;;;;;5017135;28;20455;-78
2024/01/19 11:22:55;;;;;;;7.40;3.20;;;;;;;;;;5064868;28;20420;-83
2024/01/19 11:25:25;;;;;;;6.90;2.97;;;;;;;;;;5019140;28;20504;-71
2024/01/19 11:27:53;;;;;;;5.00;2.60;;;;;;;;;;5055319;28;20440;-72
2024/01/19 11:30:27;;;;;;;5.57;2.70;;;;;;;;;;5039045;28;20459;-72
2024/01/19 11:32:53;;;;;;;4.43;2.03;;;;;;;;;;5055446;28;20497;-72
2024/01/19 11:35:40;;;;;;;5.00;2.57;;;;;;;;;;5038790;28;20432;-73
2024/01/19 11:38:07;;;;;;;5.83;2.63;;;;;;;;;;5023644;28;20829;-72
2024/01/19 11:40:35;;;;;;;5.43;2.83;;;;;;;;;;5072926;28;20431;-72
2024/01/19 11:43:03;;;;;;;2.87;2.20;;;;;;;;;;5054801;28;20498;-73
2024/01/19 11:45:42;;;;;;;5.07;3.13;;;;;;;;;;5055054;28;20491;-73
2024/01/19 11:48:11;;;;;;;6.53;2.03;;;;;;;;;;5041502;28;20552;-73
2024/01/19 11:50:55;;;;;;;5.80;2.80;;;;;;;;;;5077176;28;20386;-73
2024/01/19 11:53:22;;;;;;;6.27;3.53;;;;;;;;;;5042285;28;20794;-73
2024/01/19 11:55:50;;;;;;;6.77;3.40;;;;;;;;;;5076282;28;20463;-73
2024/01/19 11:58:27;;;;;;;5.83;3.20;;;;;;;;;;5058527;28;20432;-73
2024/01/19 12:01:12;;;;;;;4.73;3.03;;;;;;;;;;5061102;28;20483;-73
2024/01/19 12:03:39;;;;;;;6.77;1.90;;;;;;;;;;5076229;28;20413;-73
2024/01/19 12:06:07;;;;;;;4.83;2.60;;;;;;;;;;5076766;28;20431;-73
2024/01/19 12:08:34;;;;;;;5.17;2.87;;;;;;;;;;5058360;28;20470;-73
2024/01/19 12:11:05;;;;;;;4.47;2.53;;;;;;;;;;5076546;28;20466;-74
2024/01/19 12:13:33;;;;;;;3.53;2.40;;;;;;;;;;5074860;28;20483;-73
2024/01/19 12:16:00;;;;;;;4.70;2.47;;;;;;;;;;5025671;28;20772;-73
2024/01/19 12:18:28;;;;;;;3.30;1.97;;;;;;;;;;5058561;28;20439;-73
2024/01/19 12:20:55;;;;;;;6.00;2.43;;;;;;;;;;5058497;28;20416;-73
2024/01/19 12:23:22;;;;;;;3.93;2.30;;;;;;;;;;5042463;28;20508;-73
2024/01/19 12:25:57;;;;;;;7.40;2.40;;;;;;;;;;5041894;28;20428;-73
2024/01/19 12:28:42;;;;;;;6.47;2.47;;;;;;;;;;5046856;28;20445;-73
2024/01/19 12:31:20;;;;;;;4.27;1.83;;;;;;;;;;5046006;28;20478;-73
2024/01/19 12:33:46;;;;;;;6.37;2.97;;;;;;;;;;5078046;28;20957;-73
2024/01/19 12:36:16;;;;;;;5.57;2.70;;;;;;;;;;5061567;28;20450;-73
2024/01/19 12:38:44;;;;;;;5.50;2.83;;;;;;;;;;5045676;28;20442;-73
2024/01/19 12:41:17;;;;;;;5.30;2.60;;;;;;;;;;5061186;28;20442;-73
2024/01/19 12:43:44;;;;;;;8.33;2.50;;;;;;;;;;5078168;28;20380;-73
2024/01/19 12:46:12;;;;;;;4.40;1.97;;;;;;;;;;5061504;28;20416;-73
2024/01/19 12:48:39;;;;;;;6.53;2.50;;;;;;;;;;5061152;28;20510;-73
2024/01/19 12:51:07;;;;;;;5.53;2.90;;;;;;;;;;5078179;28;20415;-73
2024/01/19 12:53:34;;;;;;;8.20;2.17;;;;;;;;;;5061367;28;20430;-73
2024/01/19 12:56:02;;;;;;;3.70;2.17;;;;;;;;;;5061402;28;20763;-73
2024/01/19 12:58:29;;;;;;;4.43;1.77;;;;;;;;;;5060347;28;20526;-73
2024/01/19 13:01:14;;;;;;;4.07;2.07;;;;;;;;;;5077897;28;20407;-73
2024/01/19 13:03:41;;;;;;;5.83;2.07;;;;;;;;;;5078480;28;20419;-73
2024/01/19 13:06:25;;;;;;;4.20;2.20;;;;;;;;;;5080607;28;20384;-73
2024/01/19 13:08:52;;;;;;;5.37;2.50;;;;;;;;;;5060883;28;20452;-73
2024/01/19 13:11:23;;;;;;;4.13;2.10;;;;;;;;;;5060748;28;20435;-73
2024/01/19 13:14:00;;;;;;;5.57;2.97;;;;;;;;;;5077500;28;20786;-73
2024/01/19 13:16:27;;;;;;;8.00;2.50;;;;;;;;;;5060655;28;20434;-73
2024/01/19 13:19:00;;;;;;;7.17;2.67;;;;;;;;;;5060568;28;20917;-73
2024/01/19 13:21:27;;;;;;;7.23;2.43;;;;;;;;;;5077112;28;20534;-74
2024/01/19 13:23:54;;;;;;;5.73;1.93;;;;;;;;;;5077026;28;20906;-74
2024/01/19 13:26:21;;;;;;;4.27;1.90;;;;;;;;;;5077909;28;20443;-74
2024/01/19 13:28:48;;;;;;;3.83;2.33;;;;;;;;;;5076861;28;20457;-74
2024/01/19 13:31:15;;;;;;;9.47;3.27;;;;;;;;;;5077217;28;20425;-73
2024/01/19 13:33:45;;;;;;;8.00;3.00;;;;;;;;;;5094955;28;20507;-74
2024/01/19 13:36:13;;;;;;;5.87;2.23;;;;;;;;;;5060280;28;20437;-74
2024/01/19 13:38:40;;;;;;;6.23;3.13;;;;;;;;;;5027589;28;20445;-71
2024/01/19 13:41:09;;;;;;;3.83;1.80;;;;;;;;;;5040936;28;20420;-71
2024/01/19 13:43:53;;;;;;;5.03;2.80;;;;;;;;;;5048044;28;20421;-71
2024/01/19 13:46:24;;;;;;;6.47;2.57;;;;;;;;;;5074787;28;20385;-71
2024/01/19 13:49:08;;;;;;;4.93;2.37;;;;;;;;;;5056113;28;20463;-73
2024/01/19 13:51:35;;;;;;;3.60;1.90;;;;;;;;;;5074035;28;20428;-71
2024/01/19 13:54:19;;;;;;;6.17;2.17;;;;;;;;;;5073388;28;20387;-71
2024/01/19 13:56:47;;;;;;;4.17;2.10;;;;;;;;;;5056618;28;20519;-72
2024/01/19 13:59:13;;;;;;;3.50;1.13;;;;;;;;;;5039840;28;20437;-71
2024/01/19 14:01:40;;;;;;;7.73;2.93;;;;;;;;;;5073884;28;20448;-71
2024/01/19 14:04:07;;;;;;;3.60;1.77;;;;;;;;;;5056512;28;20435;-72
2024/01/19 14:06:34;;;;;;;2.27;1.67;;;;;;;;;;5056121;28;20412;-71
2024/01/19 14:09:02;;;;;;;6.70;2.27;;;;;;;;;;5039495;28;20510;-71
2024/01/19 14:11:28;;;;;;;4.17;2.07;;;;;;;;;;5073250;28;20416;-72
2024/01/19 14:13:55;;;;;;;5.03;2.03;;;;;;;;;;5072552;28;20452;-72
2024/01/19 14:16:22;;;;;;;2.93;1.50;;;;;;;;;;5055915;28;20971;-72
2024/01/19 14:18:49;;;;;;;6.60;2.77;;;;;;;;;;5039407;28;20973;-71
2024/01/19 14:21:16;;;;;;;6.30;2.37;;;;;;;;;;5056252;28;20416;-71
2024/01/19 14:23:43;;;;;;;4.63;2.20;;;;;;;;;;5074715;28;20432;-72
2024/01/19 14:26:10;;;;;;;4.90;2.27;;;;;;;;;;5073612;28;20431;-69
2024/01/19 14:28:37;;;;;;;4.87;1.77;;;;;;;;;;5055713;28;20482;-69
2024/01/19 14:31:04;;;;;;;5.60;2.10;;;;;;;;;;5056313;28;20416;-69
2024/01/19 14:33:31;;;;;;;5.13;2.57;;;;;;;;;;5056061;28;20784;-69
2024/01/19 14:35:58;;;;;;;10.10;3.30;;;;;;;;;;5055799;28;20416;-69
2024/01/19 14:38:24;;;;;;;7.50;2.23;;;;;;;;;;5055709;28;20448;-69
2024/01/19 14:40:51;;;;;;;6.70;2.17;;;;;;;;;;5073649;28;20744;-69
2024/01/19 14:43:18;;;;;;;5.23;1.60;;;;;;;;;;5056076;28;20486;-69
2024/01/19 14:45:46;;;;;;;3.87;2.03;;;;;;;;;;5055761;28;20443;-69
2024/01/19 14:48:14;;;;;;;4.33;1.97;;;;;;;;;;5072242;28;20432;-69
2024/01/19 14:50:41;;;;;;;5.10;2.53;;;;;;;;;;5055591;28;20542;-69
2024/01/19 14:53:08;;;;;;;5.70;2.50;;;;;;;;;;5073811;28;20526;-69
2024/01/19 14:55:35;;;;;;;8.67;2.83;;;;;;;;;;5058005;28;20428;-69
2024/01/19 14:58:02;;;;;;;3.70;1.90;;;;;;;;;;5054636;28;20479;-69
2024/01/19 15:00:33;;;;;;;5.60;2.60;;;;;;;;;;5055656;28;20946;-69
2024/01/19 15:02:59;;;;;;;4.00;2.03;;;;;;;;;;5040070;28;20424;-69
2024/01/19 15:05:26;;;;;;;5.30;2.47;;;;;;;;;;5073239;28;20416;-69
2024/01/19 15:07:55;;;;;;;2.50;1.37;;;;;;;;;;5039322;28;20443;-69
2024/01/19 15:10:22;;;;;;;7.03;2.20;;;;;;;;;;5073533;28;20470;-68
2024/01/19 15:12:51;;;;;;;6.47;2.07;;;;;;;;;;5073976;28;20526;-69
2024/01/19 15:15:19;;;;;;;4.87;2.07;;;;;;;;;;5055806;28;20513;-69
2024/01/19 15:17:47;;;;;;;3.83;2.20;;;;;;;;;;5073116;28;20519;-69
2024/01/19 15:20:14;;;;;;;2.40;1.63;;;;;;;;;;5056112;28;20427;-69
2024/01/19 15:22:41;;;;;;;6.23;2.47;;;;;;;;;;5042153;28;20436;-69
2024/01/19 15:25:12;;;;;;;3.17;1.40;;;;;;;;;;5042865;28;20535;-69
2024/01/19 15:27:41;;;;;;;4.73;1.33;;;;;;;;;;5043721;28;20428;-69
2024/01/19 15:30:08;;;;;;;4.17;1.20;;;;;;;;;;5058934;28;20491;-69
2024/01/19 15:32:36;;;;;;;2.07;1.27;;;;;;;;;;5076969;28;20476;-70
2024/01/19 15:35:03;;;;;;;6.83;2.77;;;;;;;;;;5075965;28;20729;-70
2024/01/19 15:37:31;;;;;;;5.87;2.83;;;;;;;;;;5042650;28;20779;-70
2024/01/19 15:39:58;;;;;;;4.70;1.80;;;;;;;;;;5058878;28;20475;-70
2024/01/19 15:42:25;;;;;;;3.03;1.40;;;;;;;;;;5076651;28;20427;-70
2024/01/19 15:44:56;;;;;;;4.57;2.40;;;;;;;;;;5077712;28;20403;-71
2024/01/19 15:47:22;;;;;;;5.43;2.63;;;;;;;;;;5075699;28;20439;-70
2024/01/19 15:49:49;;;;;;;5.20;2.27;;;;;;;;;;5076361;28;21026;-70
2024/01/19 15:52:16;;;;;;;7.20;3.10;;;;;;;;;;5076705;28;20456;-70